Time;durP1;ratioP1;P1;durP2;ratioP2;P2;SDS_P1;SDS_P2;PMS_P1;PMS_P2;Temp;Humidity;BMP_temperature;BMP_pressure;BME280_temperature;BME280_humidity;BME280_pressure;Samples;Min_cycle;Max_cycle;Signal;HPM_P1;HPM_P2
2023/01/03 00:00:11;;;;;;;16.70;8.97;;;;;;;2.20;nan;-23877.47;5031671;28;20589;-75
2023/01/03 00:02:37;;;;;;;22.80;10.20;;;;;;;2.37;nan;-23882.16;5031657;28;20176;-77
2023/01/03 00:05:03;;;;;;;23.07;11.10;;;;;;;2.34;nan;-23881.16;5032145;28;20310;-75
2023/01/03 00:07:34;;;;;;;21.10;10.37;;;;;;;1.99;nan;-23871.31;5030344;28;20172;-76
2023/01/03 00:10:08;;;;;;;25.90;11.10;;;;;;;1.60;nan;-23860.31;5032284;28;20178;-76
2023/01/03 00:12:35;;;;;;;19.83;10.33;;;;;;;2.20;nan;-23877.31;5031504;28;20163;-77
2023/01/03 00:15:01;;;;;;;21.80;10.60;;;;;;;1.98;nan;-23871.03;5031429;28;20218;-75
2023/01/03 00:17:27;;;;;;;21.33;9.27;;;;;;;2.05;nan;-23873.03;5030479;28;20599;-77
2023/01/03 00:20:31;;;;;;;23.77;9.67;;;;;;;2.02;nan;-23872.16;5031832;28;20595;-76
2023/01/03 00:22:58;;;;;;;21.37;10.00;;;;;;;2.01;nan;-23872.03;5031953;28;20207;-75
2023/01/03 00:25:25;;;;;;;16.87;9.00;;;;;;;1.93;nan;-23869.59;5032298;28;20168;-75
2023/01/03 00:27:50;;;;;;;15.53;9.70;;;;;;;1.46;nan;-23856.47;5032148;28;20254;-75
2023/01/03 00:30:16;;;;;;;20.07;10.47;;;;;;;1.73;nan;-23864.16;5031614;28;20258;-78
2023/01/03 00:32:41;;;;;;;18.67;9.93;;;;;;;1.77;nan;-23865.31;5031660;28;20187;-75
2023/01/03 00:35:07;;;;;;;21.67;10.57;;;;;;;1.57;nan;-23859.47;5032077;28;20214;-76
2023/01/03 00:37:32;;;;;;;23.50;10.43;;;;;;;1.58;nan;-23859.88;5032101;28;20211;-75
2023/01/03 00:39:58;;;;;;;28.97;9.13;;;;;;;1.74;nan;-23864.31;5030392;28;20636;-75
2023/01/03 00:42:23;;;;;;;25.93;9.80;;;;;;;1.63;nan;-23861.16;5032109;28;20175;-75
2023/01/03 00:44:49;;;;;;;21.73;7.63;;;;;;;1.70;nan;-23863.31;5031934;28;20244;-76
2023/01/03 00:47:14;;;;;;;19.70;9.10;;;;;;;1.42;nan;-23855.31;5032059;28;20457;-76
2023/01/03 00:49:39;;;;;;;21.33;10.40;;;;;;;1.37;nan;-23853.88;5019730;28;20181;-76
2023/01/03 00:52:05;;;;;;;22.33;10.97;;;;;;;1.29;nan;-23851.75;5018047;28;20181;-75
2023/01/03 00:54:30;;;;;;;16.37;8.00;;;;;;;1.57;nan;-23859.59;5014255;28;20734;-75
2023/01/03 00:56:56;;;;;;;18.00;9.27;;;;;;;1.77;nan;-23865.31;5013143;28;20191;-75
2023/01/03 00:59:21;;;;;;;16.23;8.97;;;;;;;1.61;nan;-23860.75;5011863;28;20184;-77
2023/01/03 01:01:50;;;;;;;26.60;8.07;;;;;;;1.31;nan;-23852.16;5011863;28;20180;-75
2023/01/03 01:04:28;;;;;;;23.53;9.43;;;;;;;1.39;nan;-23854.44;5011337;28;20310;-74
2023/01/03 01:06:59;;;;;;;32.93;9.37;;;;;;;1.46;nan;-23856.47;5011731;28;20314;-75
2023/01/03 01:09:30;;;;;;;22.33;8.27;;;;;;;1.16;nan;-23848.03;5011354;28;20181;-76
2023/01/03 01:11:56;;;;;;;13.53;7.50;;;;;;;1.30;nan;-23851.88;5012087;28;20198;-74
2023/01/03 01:14:24;;;;;;;13.97;7.67;;;;;;;1.34;nan;-23853.16;5015708;28;20211;-77
2023/01/03 01:16:55;;;;;;;13.03;8.17;;;;;;;1.33;nan;-23852.75;5019673;28;20223;-75
2023/01/03 01:19:25;;;;;;;16.07;8.23;;;;;;;1.37;nan;-23853.75;5006784;28;20235;-75
2023/01/03 01:21:51;;;;;;;14.90;7.37;;;;;;;1.33;nan;-23852.75;5013478;28;20599;-77
2023/01/03 01:24:16;;;;;;;25.87;9.40;;;;;;;0.83;nan;-23838.59;5020313;28;20197;-76
2023/01/03 01:26:42;;;;;;;14.07;6.87;;;;;;;0.93;nan;-23841.44;5014604;28;20721;-74
2023/01/03 01:29:10;;;;;;;14.37;7.87;;;;;;;1.18;nan;-23848.59;5015084;28;20247;-74
2023/01/03 01:31:36;;;;;;;13.43;7.97;;;;;;;1.17;nan;-23848.16;5014936;28;20185;-77
2023/01/03 01:34:01;;;;;;;19.20;8.37;;;;;;;1.49;nan;-23857.16;5014667;28;20183;-74
2023/01/03 01:36:30;;;;;;;12.47;7.50;;;;;;;1.01;nan;-23843.59;5014911;28;20183;-75
2023/01/03 01:39:01;;;;;;;10.37;6.50;;;;;;;1.22;nan;-23849.59;5014682;28;20172;-77
2023/01/03 01:44:46;;;;;;;18.33;7.53;;;;;;;1.39;nan;-23854.31;5015272;28;20202;-77
2023/01/03 01:47:28;;;;;;;21.93;9.23;;;;;;;1.23;nan;-23849.88;5014803;28;20163;-77
2023/01/03 01:50:12;;;;;;;17.30;6.73;;;;;;;1.20;nan;-23849.16;5019307;28;20199;-77
2023/01/03 01:52:43;;;;;;;14.87;7.43;;;;;;;1.07;nan;-23845.44;5008260;28;20199;-77
2023/01/03 01:55:14;;;;;;;16.33;8.57;;;;;;;0.77;nan;-23837.00;5016381;28;20306;-76
2023/01/03 01:57:42;;;;;;;25.80;8.07;;;;;;;0.71;nan;-23835.16;5014606;28;20184;-74
2023/01/03 02:00:09;;;;;;;18.83;10.03;;;;;;;0.98;nan;-23842.72;5013898;28;20555;-75
2023/01/03 02:02:34;;;;;;;19.30;7.43;;;;;;;0.91;nan;-23840.88;5014367;28;20175;-74
2023/01/03 02:05:05;;;;;;;17.43;8.30;;;;;;;0.48;nan;-23828.72;5014470;28;20257;-74
2023/01/03 02:07:33;;;;;;;17.77;8.47;;;;;;;0.78;nan;-23837.28;5012617;28;20681;-75
2023/01/03 02:09:59;;;;;;;12.13;6.07;;;;;;;0.57;nan;-23831.13;5014449;28;20186;-77
2023/01/03 02:15:44;;;;;;;11.87;6.17;;;;;;;0.71;nan;-23835.16;5013882;28;20213;-75
2023/01/03 02:18:30;;;;;;;13.73;7.70;;;;;;;0.34;nan;-23824.69;5016919;28;20183;-73
2023/01/03 02:21:14;;;;;;;18.20;7.57;;;;;;;0.72;nan;-23835.56;5014184;28;20211;-77
2023/01/03 02:23:49;;;;;;;15.27;7.53;;;;;;;0.70;nan;-23835.00;5013842;28;20649;-76
2023/01/03 02:26:41;;;;;;;17.10;6.33;;;;;;;0.62;nan;-23832.72;5015943;28;20187;-74
2023/01/03 02:29:09;;;;;;;16.40;7.27;;;;;;;0.69;nan;-23834.72;5013647;28;20200;-75
2023/01/03 02:32:05;;;;;;;17.70;8.40;;;;;;;0.31;nan;-23824.00;5013954;28;20168;-75
2023/01/03 02:34:48;;;;;;;13.93;7.47;;;;;;;0.66;nan;-23833.84;5010272;28;20219;-76
2023/01/03 02:37:32;;;;;;;13.43;7.17;;;;;;;0.73;nan;-23835.88;5013446;28;20166;-77
2023/01/03 02:40:05;;;;;;;15.70;7.93;;;;;;;0.27;nan;-23822.84;5013423;28;20183;-76
2023/01/03 02:43:00;;;;;;;19.13;8.10;;;;;;;0.68;nan;-23834.28;5013428;28;20175;-75
2023/01/03 02:45:50;;;;;;;12.27;7.53;;;;;;;0.68;nan;-23834.44;5013106;28;20258;-76
2023/01/03 02:48:41;;;;;;;17.57;8.47;;;;;;;0.15;nan;-23819.41;5013030;28;20179;-74
2023/01/03 02:51:14;;;;;;;15.70;7.30;;;;;;;0.32;nan;-23824.13;5011875;28;20161;-77
2023/01/03 02:53:44;;;;;;;19.20;7.93;;;;;;;0.04;nan;-23816.13;5013905;28;20212;-76
2023/01/03 02:56:15;;;;;;;12.70;6.47;;;;;;;0.44;nan;-23827.56;5011871;28;20199;-74
2023/01/03 02:58:45;;;;;;;12.23;7.53;;;;;;;0.38;nan;-23826.00;5018447;28;20213;-75
2023/01/03 03:01:12;;;;;;;12.90;6.80;;;;;;;0.09;nan;-23817.53;5013977;28;20553;-77
2023/01/03 03:03:39;;;;;;;13.43;6.90;;;;;;;0.25;nan;-23822.25;5017575;28;20224;-73
2023/01/03 03:06:28;;;;;;;25.00;8.70;;;;;;;0.62;nan;-23832.56;5013055;28;20577;-74
2023/01/03 03:08:53;;;;;;;13.60;7.97;;;;;;;0.13;nan;-23818.84;5013540;28;20175;-74
2023/01/03 03:14:08;;;;;;;14.30;7.20;;;;;;;0.48;nan;-23828.72;5013482;28;20332;-75
2023/01/03 03:16:47;;;;;;;16.53;8.47;;;;;;;0.35;nan;-23825.00;5013192;28;20178;-74
2023/01/03 03:24:48;;;;;;;18.93;8.17;;;;;;;0.46;nan;-23828.13;5013432;28;20179;-77
2023/01/03 03:24:56;;;;;;;20.60;9.63;;;;;;;0.10;nan;-23817.97;5012655;28;20196;-75
2023/01/03 03:30:14;;;;;;;15.33;7.10;;;;;;;0.50;nan;-23829.28;5019947;28;20207;-75
2023/01/03 03:32:43;;;;;;;12.97;6.87;;;;;;;0.51;nan;-23829.44;5012993;28;20228;-75
2023/01/03 03:35:12;;;;;;;18.30;8.57;;;;;;;0.03;nan;-23815.97;5012732;28;20209;-74
2023/01/03 03:37:41;;;;;;;11.73;6.73;;;;;;;0.45;nan;-23827.84;5014536;28;20662;-77
2023/01/03 03:46:22;;;;;;;15.13;7.47;;;;;;;-0.04;nan;-23813.97;5012105;28;20189;-76
2023/01/03 03:51:46;;;;;;;19.53;8.77;;;;;;;0.47;nan;-23828.28;5012241;28;20278;-76
2023/01/03 03:54:17;;;;;;;13.53;7.83;;;;;;;0.28;nan;-23823.13;5012193;28;20182;-74
2023/01/03 03:56:47;;;;;;;19.97;7.83;;;;;;;0.37;nan;-23825.56;5012073;28;20622;-76
2023/01/03 03:59:16;;;;;;;14.20;7.97;;;;;;;0.04;nan;-23816.25;5012338;28;20200;-75
2023/01/03 04:01:45;;;;;;;14.50;8.60;;;;;;;0.14;nan;-23819.13;5017500;28;20186;-74
2023/01/03 04:04:18;;;;;;;14.03;7.73;;;;;;;-0.08;nan;-23812.97;5012358;28;20227;-76
2023/01/03 04:06:48;;;;;;;15.23;8.17;;;;;;;0.36;nan;-23825.41;5007883;28;20274;-74
2023/01/03 04:09:14;;;;;;;21.67;9.43;;;;;;;0.42;nan;-23827.00;4998136;28;20183;-75
2023/01/03 04:11:40;;;;;;;17.33;8.33;;;;;;;0.39;nan;-23826.13;5011059;28;20601;-75
2023/01/03 04:14:06;;;;;;;19.33;8.27;;;;;;;-0.16;nan;-23810.53;5017286;28;20244;-73
2023/01/03 04:16:31;;;;;;;22.60;8.77;;;;;;;0.35;nan;-23825.13;5012269;28;20213;-76
2023/01/03 04:18:56;;;;;;;16.83;7.07;;;;;;;0.41;nan;-23826.72;5012098;28;20204;-76
2023/01/03 04:21:22;;;;;;;15.37;7.97;;;;;;;0.15;nan;-23819.41;5010785;28;20268;-73
2023/01/03 04:23:47;;;;;;;18.37;7.63;;;;;;;0.34;nan;-23824.69;5011741;28;20362;-72
2023/01/03 04:26:13;;;;;;;15.27;7.70;;;;;;;0.77;nan;-23836.88;5012108;28;20183;-74
2023/01/03 04:28:38;;;;;;;13.10;7.10;;;;;;;0.25;nan;-23822.25;5012681;28;20172;-74
2023/01/03 04:31:04;;;;;;;20.80;7.27;;;;;;;0.55;nan;-23830.72;5012841;28;20630;-71
2023/01/03 04:33:29;;;;;;;13.27;6.10;;;;;;;0.21;nan;-23820.97;5011705;28;20191;-73
2023/01/03 04:35:54;;;;;;;15.83;7.43;;;;;;;0.28;nan;-23822.97;5048965;28;20209;-74
2023/01/03 04:38:20;;;;;;;14.87;8.13;;;;;;;-0.01;nan;-23814.81;5011844;28;20537;-73
2023/01/03 04:40:45;;;;;;;16.00;7.70;;;;;;;0.11;nan;-23818.25;5011750;28;20173;-76
2023/01/03 04:45:55;;;;;;;13.53;7.80;;;;;;;0.05;nan;-23816.41;5011717;28;20169;-72
2023/01/03 04:48:20;;;;;;;12.53;6.33;;;;;;;0.18;nan;-23820.25;5011663;28;20182;-75
2023/01/03 04:50:55;;;;;;;14.90;6.90;;;;;;;0.06;nan;-23816.69;5018017;28;20580;-75
2023/01/03 04:53:22;;;;;;;16.13;6.77;;;;;;;-0.14;nan;-23811.09;5013961;28;20187;-76
2023/01/03 04:55:50;;;;;;;18.33;9.33;;;;;;;-0.13;nan;-23811.38;5015533;28;20263;-72
2023/01/03 04:58:16;;;;;;;20.33;7.47;;;;;;;0.15;nan;-23819.25;5015485;28;20183;-74
2023/01/03 05:00:41;;;;;;;13.73;6.33;;;;;;;0.00;nan;-23815.25;5015160;28;20172;-74
2023/01/03 05:03:07;;;;;;;12.17;6.00;;;;;;;0.33;nan;-23824.41;5015218;28;20231;-75
2023/01/03 05:05:35;;;;;;;17.17;6.30;;;;;;;-0.26;nan;-23807.81;5015350;28;20668;-75
2023/01/03 05:08:04;;;;;;;19.97;6.63;;;;;;;0.56;nan;-23830.84;5017580;28;20187;-74
2023/01/03 05:10:29;;;;;;;17.50;6.97;;;;;;;0.41;nan;-23826.72;5017801;28;20648;-72
2023/01/03 05:13:01;;;;;;;18.00;6.93;;;;;;;0.04;nan;-23816.13;5019202;28;20234;-75
2023/01/03 05:15:27;;;;;;;13.10;5.07;;;;;;;0.39;nan;-23826.28;5017058;28;20200;-76
2023/01/03 05:17:53;;;;;;;11.93;6.07;;;;;;;0.11;nan;-23818.25;5017725;28;20179;-73
2023/01/03 05:25:49;;;;;;;12.50;6.33;;;;;;;-0.30;nan;-23806.50;5015810;28;20195;-77
2023/01/03 05:28:16;;;;;;;11.07;6.43;;;;;;;-0.22;nan;-23808.81;5016693;28;20252;-74
2023/01/03 05:30:42;;;;;;;14.23;6.37;;;;;;;0.15;nan;-23819.41;5017447;28;20181;-75
2023/01/03 05:33:07;;;;;;;18.90;7.47;;;;;;;-0.15;nan;-23810.97;5016253;28;20207;-75
2023/01/03 05:35:33;;;;;;;11.17;6.23;;;;;;;0.18;nan;-23820.13;5016332;28;20692;-74
2023/01/03 05:37:58;;;;;;;16.93;9.30;;;;;;;0.05;nan;-23816.41;5014512;28;20184;-73
2023/01/03 05:40:23;;;;;;;10.40;6.97;;;;;;;0.06;nan;-23816.69;5012054;28;20827;-78
2023/01/03 05:42:49;;;;;;;13.70;7.67;;;;;;;0.23;nan;-23821.56;5013696;28;20649;-74
2023/01/03 05:45:15;;;;;;;15.20;8.70;;;;;;;-0.21;nan;-23809.09;5014990;28;20186;-75
2023/01/03 05:47:40;;;;;;;15.97;7.20;;;;;;;0.26;nan;-23822.41;5015803;28;20551;-73
2023/01/03 05:50:06;;;;;;;17.33;8.40;;;;;;;-0.16;nan;-23810.53;5014147;28;20199;-72
2023/01/03 05:52:31;;;;;;;20.37;6.73;;;;;;;0.00;nan;-23815.25;5012948;28;20184;-73
2023/01/03 05:54:57;;;;;;;17.97;7.53;;;;;;;0.09;nan;-23817.53;5013379;28;20196;-75
2023/01/03 05:57:22;;;;;;;12.23;7.40;;;;;;;0.23;nan;-23821.69;5012978;28;20187;-73
2023/01/03 05:59:47;;;;;;;13.20;6.93;;;;;;;-0.18;nan;-23810.09;5012985;28;20184;-75
2023/01/03 06:02:13;;;;;;;15.13;7.50;;;;;;;0.19;nan;-23820.41;5012921;28;20187;-76
2023/01/03 06:04:38;;;;;;;17.50;7.93;;;;;;;-0.22;nan;-23808.81;5013359;28;20416;-76
2023/01/03 06:07:04;;;;;;;23.23;7.70;;;;;;;0.11;nan;-23818.25;5011984;28;20168;-75
2023/01/03 06:09:30;;;;;;;14.53;7.37;;;;;;;0.13;nan;-23818.84;5017015;28;20192;-74
2023/01/03 06:11:56;;;;;;;13.67;6.80;;;;;;;0.33;nan;-23824.41;5019506;28;20188;-74
2023/01/03 06:14:21;;;;;;;12.90;6.10;;;;;;;0.47;nan;-23828.41;5017129;28;20561;-73
2023/01/03 06:19:31;;;;;;;13.87;6.43;;;;;;;-0.49;nan;-23801.34;5013403;28;20267;-74
2023/01/03 06:21:56;;;;;;;24.13;7.43;;;;;;;0.05;nan;-23816.41;5012084;28;20263;-75
2023/01/03 06:24:22;;;;;;;13.93;6.77;;;;;;;0.51;nan;-23829.56;5013698;28;20176;-72
2023/01/03 06:26:47;;;;;;;15.57;7.03;;;;;;;0.38;nan;-23826.00;5013767;28;20248;-76
2023/01/03 06:29:12;;;;;;;16.47;7.43;;;;;;;0.64;nan;-23833.28;5011704;28;20611;-74
2023/01/03 06:31:39;;;;;;;16.13;5.70;;;;;;;0.68;nan;-23834.28;5010950;28;20284;-76
2023/01/03 06:34:04;;;;;;;12.30;6.17;;;;;;;0.65;nan;-23833.44;5012770;28;20172;-75
2023/01/03 06:36:32;;;;;;;11.00;6.20;;;;;;;0.72;nan;-23835.44;5044579;28;20287;-75
2023/01/03 06:38:58;;;;;;;12.67;6.33;;;;;;;0.40;nan;-23826.41;5012331;28;20670;-71
2023/01/03 06:41:23;;;;;;;16.23;7.40;;;;;;;0.71;nan;-23835.28;5017309;28;20184;-72
2023/01/03 06:43:50;;;;;;;15.30;7.50;;;;;;;1.19;nan;-23848.88;5012160;28;20652;-70
2023/01/03 06:54:36;;;;;;;16.77;6.33;;;;;;;1.21;nan;-23849.44;5011885;28;20202;-69
2023/01/03 06:57:02;;;;;;;13.57;6.07;;;;;;;1.58;nan;-23859.75;5012359;28;20226;-72
2023/01/03 06:59:27;;;;;;;19.57;7.30;;;;;;;1.57;nan;-23859.47;5012420;28;20703;-72
2023/01/03 07:01:53;;;;;;;12.73;6.20;;;;;;;1.61;nan;-23860.75;5011904;28;20284;-72
2023/01/03 07:04:20;;;;;;;11.30;6.53;;;;;;;1.86;nan;-23867.59;5043235;28;20718;-70
2023/01/03 07:06:46;;;;;;;19.93;7.10;;;;;;;2.02;nan;-23872.16;5011813;28;20199;-74
2023/01/03 07:09:12;;;;;;;12.97;6.00;;;;;;;2.04;nan;-23872.75;5011967;28;20656;-73
2023/01/03 07:11:38;;;;;;;9.30;6.13;;;;;;;2.29;nan;-23879.88;5013379;28;20279;-71
2023/01/03 07:14:06;;;;;;;18.03;7.57;;;;;;;2.22;nan;-23878.03;5011246;28;20211;-71
2023/01/03 07:16:35;;;;;;;16.97;8.40;;;;;;;1.94;nan;-23869.88;5011224;28;20199;-71
2023/01/03 07:19:02;;;;;;;17.83;7.43;;;;;;;2.03;nan;-23872.47;5012035;28;20314;-73
2023/01/03 07:21:29;;;;;;;15.33;6.87;;;;;;;2.11;nan;-23874.75;5011807;28;20175;-71
2023/01/03 07:23:57;;;;;;;15.17;7.10;;;;;;;2.64;nan;-23889.88;5011871;28;20184;-74
2023/01/03 07:26:24;;;;;;;12.57;7.23;;;;;;;2.47;nan;-23885.03;5010746;28;20638;-72
2023/01/03 07:28:52;;;;;;;15.10;8.20;;;;;;;2.83;nan;-23895.00;5011559;28;20187;-71
2023/01/03 07:31:19;;;;;;;19.00;9.00;;;;;;;2.94;nan;-23898.16;5012775;28;20681;-71
2023/01/03 07:33:44;;;;;;;15.07;7.67;;;;;;;3.16;nan;-23904.44;5010859;28;20693;-75
2023/01/03 07:36:12;;;;;;;15.30;7.87;;;;;;;3.28;nan;-23907.72;5011550;28;20227;-72
2023/01/03 07:38:40;;;;;;;18.47;8.27;;;;;;;3.18;nan;-23905.00;5011557;28;20215;-72
2023/01/03 07:41:09;;;;;;;30.03;8.03;;;;;;;3.26;nan;-23907.28;5016446;28;20187;-75
2023/01/03 07:43:41;;;;;;;12.97;7.90;;;;;;;3.75;nan;-23920.97;5011337;28;20211;-72
2023/01/03 07:46:15;;;;;;;19.30;8.17;;;;;;;3.84;nan;-23923.53;5011752;28;20191;-73
2023/01/03 07:48:42;;;;;;;27.67;8.17;;;;;;;3.64;nan;-23917.81;5008844;28;20183;-73
2023/01/03 07:51:14;;;;;;;16.60;8.77;;;;;;;4.07;nan;-23929.94;5009579;28;20266;-73
2023/01/03 07:53:40;;;;;;;11.83;7.67;;;;;;;4.09;nan;-23930.50;5011289;28;20632;-73
2023/01/03 07:56:09;;;;;;;16.40;8.63;;;;;;;4.36;nan;-23938.34;5010464;28;20287;-73
2023/01/03 07:58:35;;;;;;;14.70;7.90;;;;;;;4.33;nan;-23937.47;5011071;28;20182;-74
2023/01/03 08:01:09;;;;;;;23.00;7.90;;;;;;;4.74;nan;-23948.88;5010774;28;20691;-74
2023/01/03 08:03:35;;;;;;;19.63;8.03;;;;;;;4.50;nan;-23942.03;5010989;28;20682;-74
2023/01/03 08:06:03;;;;;;;16.33;7.90;;;;;;;4.73;nan;-23948.59;5011286;28;20179;-73
2023/01/03 08:08:28;;;;;;;15.20;9.83;;;;;;;4.85;nan;-23952.00;5010871;28;20191;-73
2023/01/03 08:13:39;;;;;;;18.43;9.77;;;;;;;4.47;nan;-23941.31;5011344;28;20257;-73
2023/01/03 08:16:10;;;;;;;19.23;9.20;;;;;;;5.25;nan;-23963.38;5010749;28;20652;-73
2023/01/03 08:18:36;;;;;;;16.00;9.40;;;;;;;5.74;nan;-23977.16;5011406;28;20262;-74
2023/01/03 08:21:01;;;;;;;20.37;9.10;;;;;;;5.92;nan;-23982.16;5011093;28;20168;-73
2023/01/03 08:23:28;;;;;;;19.27;9.57;;;;;;;5.72;nan;-23976.59;5012368;28;20195;-73
2023/01/03 08:26:00;;;;;;;14.27;8.13;;;;;;;5.76;nan;-23977.59;5015190;28;20613;-72
2023/01/03 08:28:25;;;;;;;17.10;8.43;;;;;;;6.01;nan;-23984.69;5015383;28;20172;-74
2023/01/03 08:30:51;;;;;;;17.63;7.87;;;;;;;6.18;nan;-23989.38;5014618;28;20180;-73
2023/01/03 08:33:18;;;;;;;16.87;7.30;;;;;;;6.22;nan;-23990.53;5014767;28;20184;-73
2023/01/03 08:36:05;;;;;;;16.37;8.10;;;;;;;6.71;nan;-24004.16;5014341;28;20210;-72
2023/01/03 08:38:57;;;;;;;15.97;8.93;;;;;;;6.78;nan;-24006.28;5013800;28;20261;-73
2023/01/03 08:41:27;;;;;;;13.63;7.57;;;;;;;6.97;nan;-24011.66;5021393;28;20200;-72
2023/01/03 08:43:54;;;;;;;19.53;8.30;;;;;;;7.00;nan;-24012.53;5014859;28;20190;-73
2023/01/03 08:46:20;;;;;;;18.63;8.23;;;;;;;6.89;nan;-24009.25;5014774;28;20263;-74
2023/01/03 08:48:45;;;;;;;13.57;7.43;;;;;;;7.39;nan;-24023.44;5015068;28;20258;-72
2023/01/03 08:51:11;;;;;;;14.67;8.03;;;;;;;7.57;nan;-24028.25;5014443;28;20176;-74
2023/01/03 08:53:37;;;;;;;16.23;8.93;;;;;;;7.36;nan;-24022.59;5014766;28;20268;-73
2023/01/03 08:56:03;;;;;;;14.33;8.23;;;;;;;7.80;nan;-24034.91;5014721;28;20289;-74
2023/01/03 08:58:28;;;;;;;18.97;9.37;;;;;;;8.05;nan;-24041.84;5014274;28;20688;-73
2023/01/03 09:00:53;;;;;;;17.37;9.50;;;;;;;7.98;nan;-24040.03;5019143;28;20191;-74
2023/01/03 09:03:19;;;;;;;14.47;8.30;;;;;;;7.99;nan;-24040.16;5019478;28;20219;-75
2023/01/03 09:05:45;;;;;;;17.47;8.80;;;;;;;8.08;nan;-24042.56;5014990;28;20636;-73
2023/01/03 09:08:10;;;;;;;15.43;7.82;;;;;;;8.52;nan;-24054.88;5014980;28;20730;-71
2023/01/03 09:10:36;;;;;;;15.50;9.05;;;;;;;8.52;nan;-24055.03;5017090;28;20195;-72
2023/01/03 09:13:03;;;;;;;15.98;8.30;;;;;;;8.56;nan;-24056.16;5015037;28;20332;-72
2023/01/03 09:15:29;;;;;;;18.35;9.00;;;;;;;8.66;nan;-24058.84;5014727;28;20215;-73
2023/01/03 09:17:54;;;;;;;14.23;7.95;;;;;;;9.00;nan;-24068.47;5014764;28;20636;-72
2023/01/03 09:20:20;;;;;;;13.18;7.80;;;;;;;9.03;nan;-24069.19;5014327;28;20217;-73
2023/01/03 09:22:46;;;;;;;22.42;9.48;;;;;;;9.29;nan;-24076.53;5014136;28;20644;-73
2023/01/03 09:25:12;;;;;;;21.88;9.55;;;;;;;9.37;nan;-24078.66;5014491;28;20165;-72
2023/01/03 09:27:38;;;;;;;20.20;9.20;;;;;;;9.21;nan;-24074.25;5014319;28;20263;-72
2023/01/03 09:30:04;;;;;;;15.93;8.93;;;;;;;9.38;nan;-24079.06;5014629;28;20230;-73
2023/01/03 09:32:29;;;;;;;23.48;10.02;;;;;;;9.80;nan;-24090.66;5014729;28;20175;-74
2023/01/03 09:34:54;;;;;;;17.60;9.75;;;;;;;9.99;nan;-24096.03;5013521;28;20192;-72
2023/01/03 09:37:20;;;;;;;24.63;9.93;;;;;;;9.85;nan;-24092.06;5014486;28;20180;-73
2023/01/03 09:39:45;;;;;;;22.65;10.35;;;;;;;10.13;nan;-24100.13;5014959;28;20298;-72
2023/01/03 09:45:05;;;;;;;20.60;10.05;;;;;;;10.49;nan;-24110.00;5013882;28;20237;-73
2023/01/03 09:47:35;;;;;;;20.48;9.85;;;;;;;10.43;nan;-24108.47;5013791;28;20234;-73
2023/01/03 09:50:01;;;;;;;18.80;10.88;;;;;;;10.21;nan;-24102.09;5013852;28;20210;-71
2023/01/03 10:04:35;;;;;;;23.42;9.82;;;;;;;11.01;nan;-24124.53;5013859;28;20234;-73
2023/01/03 10:07:20;;;;;;;26.10;11.63;;;;;;;11.06;nan;-24125.94;5014063;28;20631;-73
2023/01/03 10:10:01;;;;;;;27.13;11.60;;;;;;;11.13;nan;-24127.91;5013571;28;20188;-73
2023/01/03 10:12:44;;;;;;;24.75;10.98;;;;;;;10.78;nan;-24118.03;5015854;28;20545;-72
2023/01/03 10:15:51;;;;;;;19.27;9.75;;;;;;;11.38;nan;-24134.97;5013637;28;20210;-72
2023/01/03 10:18:53;;;;;;;25.35;11.15;;;;;;;11.38;nan;-24134.97;5015394;28;20187;-73
2023/01/03 10:21:24;;;;;;;19.35;8.25;;;;;;;11.28;nan;-24132.16;5016649;28;20187;-72
2023/01/03 10:23:53;;;;;;;15.02;8.70;;;;;;;11.03;nan;-24125.25;5013848;28;20651;-71
2023/01/03 10:26:18;;;;;;;16.50;8.48;;;;;;;11.54;nan;-24139.34;5013059;28;20638;-72
2023/01/03 10:28:46;;;;;;;14.65;7.88;;;;;;;11.62;nan;-24141.44;5012961;28;20203;-73
2023/01/03 10:31:14;;;;;;;17.55;8.45;;;;;;;11.84;nan;-24147.66;5013379;28;20230;-73
2023/01/03 10:33:45;;;;;;;19.92;8.85;;;;;;;11.96;nan;-24151.03;5012664;28;20168;-73
2023/01/03 10:36:12;;;;;;;15.05;8.43;;;;;;;12.12;nan;-24155.53;5011986;28;20196;-72
2023/01/03 10:38:38;;;;;;;22.23;10.00;;;;;;;12.15;nan;-24156.25;5013162;28;20172;-73
2023/01/03 10:41:13;;;;;;;19.98;9.70;;;;;;;12.13;nan;-24155.81;5011899;28;20172;-74
2023/01/03 10:43:44;;;;;;;17.73;8.95;;;;;;;12.31;nan;-24160.88;5014240;28;20718;-73
2023/01/03 10:46:20;;;;;;;22.05;10.85;;;;;;;12.27;nan;-24159.75;5016716;28;20184;-72
2023/01/03 10:48:48;;;;;;;20.67;9.57;;;;;;;12.64;nan;-24170.03;5012215;28;20191;-73
2023/01/03 10:51:34;;;;;;;21.67;10.15;;;;;;;12.88;nan;-24176.63;5012748;28;20203;-72
2023/01/03 10:54:20;;;;;;;20.63;10.50;;;;;;;12.68;nan;-24171.00;5012242;28;20229;-72
2023/01/03 10:56:46;;;;;;;19.35;8.77;;;;;;;12.89;nan;-24176.91;5013433;28;20294;-72
2023/01/03 10:59:27;;;;;;;19.33;9.60;;;;;;;12.95;nan;-24178.59;5008713;28;20701;-72
2023/01/03 11:01:56;;;;;;;21.88;9.57;;;;;;;13.28;nan;-24187.88;5013233;28;20183;-73
2023/01/03 11:04:22;;;;;;;27.48;10.85;;;;;;;13.07;nan;-24181.84;5012631;28;20227;-74
2023/01/03 11:07:10;;;;;;;21.70;9.52;;;;;;;13.66;nan;-24198.41;5011314;28;20278;-73
2023/01/03 11:09:53;;;;;;;24.38;10.68;;;;;;;13.57;nan;-24195.75;5013010;28;20206;-74
2023/01/03 11:12:27;;;;;;;28.95;10.65;;;;;;;13.23;nan;-24186.47;5012974;28;20172;-73
2023/01/03 11:14:55;;;;;;;21.63;10.23;;;;;;;13.32;nan;-24188.88;5012993;28;20195;-72
2023/01/03 11:17:22;;;;;;;21.02;10.82;;;;;;;13.36;nan;-24190.00;5016830;28;20182;-73
2023/01/03 11:19:49;;;;;;;19.92;9.65;;;;;;;13.82;nan;-24202.63;5012450;28;20518;-73
2023/01/03 11:22:29;;;;;;;17.63;9.02;;;;;;;13.50;nan;-24193.91;5012376;28;20176;-74
2023/01/03 11:25:06;;;;;;;19.00;9.75;;;;;;;13.84;nan;-24203.19;5012032;28;20539;-72
2023/01/03 11:27:59;;;;;;;16.85;8.38;;;;;;;13.90;nan;-24205.00;4992526;28;20208;-71
2023/01/03 11:30:43;;;;;;;15.60;8.23;;;;;;;14.08;nan;-24210.06;4992568;28;20260;-73
2023/01/03 11:33:14;;;;;;;19.67;9.20;;;;;;;14.18;nan;-24212.59;5005844;28;20223;-72
2023/01/03 11:35:54;;;;;;;18.55;8.75;;;;;;;14.15;nan;-24212.03;5011233;28;20695;-72
2023/01/03 11:38:25;;;;;;;19.75;9.10;;;;;;;14.22;nan;-24213.84;5012720;28;20692;-71
2023/01/03 11:40:51;;;;;;;23.50;9.57;;;;;;;14.03;nan;-24208.66;5015934;28;20183;-73
2023/01/03 11:43:29;;;;;;;17.88;9.90;;;;;;;14.10;nan;-24210.50;5014962;28;20187;-73
2023/01/03 11:46:09;;;;;;;22.58;9.93;;;;;;;14.33;nan;-24216.81;5013049;28;20187;-73
2023/01/03 11:48:53;;;;;;;19.10;8.93;;;;;;;14.41;nan;-24219.03;5016226;28;20182;-73
2023/01/03 11:52:00;;;;;;;19.42;10.35;;;;;;;14.39;nan;-24218.47;5016840;28;20195;-72
2023/01/03 11:55:42;;;;;;;22.13;10.25;;;;;;;14.20;nan;-24213.16;5017029;28;20224;-73
2023/01/03 11:58:32;;;;;;;20.92;10.27;;;;;;;14.19;nan;-24213.00;4966312;28;20272;-73
2023/01/03 12:01:56;;;;;;;26.90;10.50;;;;;;;14.48;nan;-24221.16;4966228;28;20189;-74
2023/01/03 12:04:39;;;;;;;20.77;10.45;;;;;;;14.16;nan;-24212.16;5014763;28;20230;-73
2023/01/03 12:07:16;;;;;;;16.50;8.55;;;;;;;14.08;nan;-24210.06;4995729;28;20188;-72
2023/01/03 12:09:51;;;;;;;18.55;10.38;;;;;;;14.34;nan;-24217.22;5013869;28;20340;-72
2023/01/03 12:12:43;;;;;;;19.85;9.95;;;;;;;14.45;nan;-24220.16;5015922;28;20210;-72
2023/01/03 12:15:26;;;;;;;29.02;11.10;;;;;;;14.47;nan;-24220.72;5012550;28;20754;-72
2023/01/03 12:18:04;;;;;;;26.23;9.30;;;;;;;14.49;nan;-24221.44;5048161;28;20187;-73
2023/01/03 12:20:39;;;;;;;18.60;8.00;;;;;;;14.47;nan;-24220.72;5013645;28;20274;-73
2023/01/03 12:23:41;;;;;;;13.93;8.35;;;;;;;14.88;nan;-24232.22;5013172;28;20183;-73
2023/01/03 12:26:11;;;;;;;21.20;9.10;;;;;;;14.81;nan;-24230.25;5010304;28;20183;-74
2023/01/03 12:28:46;;;;;;;26.02;9.93;;;;;;;14.76;nan;-24228.72;5018664;28;20323;-72
2023/01/03 12:31:45;;;;;;;22.20;11.15;;;;;;;14.98;nan;-24234.88;5017574;28;20182;-71
2023/01/03 12:34:42;;;;;;;17.95;9.40;;;;;;;14.88;nan;-24232.09;5017891;28;20246;-72
2023/01/03 12:37:21;;;;;;;21.23;9.57;;;;;;;14.80;nan;-24229.84;5016526;28;20192;-72
2023/01/03 12:40:21;;;;;;;24.55;10.02;;;;;;;14.82;nan;-24230.41;5013810;28;21113;-72
2023/01/03 12:43:15;;;;;;;19.15;10.32;;;;;;;14.84;nan;-24231.09;5011134;28;20203;-72
2023/01/03 12:45:53;;;;;;;19.50;9.23;;;;;;;14.76;nan;-24228.72;5015505;28;20180;-73
2023/01/03 12:48:57;;;;;;;20.55;11.07;;;;;;;14.62;nan;-24224.94;5016101;28;20568;-72
2023/01/03 12:51:23;;;;;;;24.50;10.70;;;;;;;14.51;nan;-24222.00;5016861;28;20302;-72
2023/01/03 12:54:23;;;;;;;22.85;10.45;;;;;;;14.83;nan;-24230.81;5016864;28;20717;-72
2023/01/03 12:56:59;;;;;;;20.45;9.43;;;;;;;14.56;nan;-24223.25;5017287;28;20675;-72
2023/01/03 12:59:46;;;;;;;22.50;9.13;;;;;;;14.73;nan;-24228.03;5017812;28;20226;-70